Rose, Kansas
Current Conditions -  °F | °C
As of 2:52 PM on Wednesday 17 Dec 2014 (Local Time) from KCNU Reporting Station
Overcast Overcast  
Wind Chill: 26°   Ceiling: 7000
Heat Index: 32°   Visibility: 8mi
Dew Point: 27°   Wind: 7mph
Humidity: 82%   Direction: 120°ESE
Pressure: 30.23"   Gusts: NA
Location:  37.893°N, 95.7469°W
Report Text: KCNU 172052Z AUTO 12006KT 8SM FEW013 OVC070 00/M03 A3023 RMK AO2 SLP244 T00001028 56020
Loading
Personal Weather Stations






























Interactive Weather Map New forecast layout! Learn more

10-Day Weather Forecast

Advertisements
Track Severe Weather on mobile